Time;durP1;ratioP1;P1;durP2;ratioP2;P2;SDS_P1;SDS_P2;PMS_P1;PMS_P2;Temp;Humidity;BMP_temperature;BMP_pressure;BME280_temperature;BME280_humidity;BME280_pressure;Samples;Min_cycle;Max_cycle;Signal;HPM_P1;HPM_P2
2023/03/18 00:00:45;;;;;;;10.67;6.70;;;10.50;1.00;;;;;;5045341;28;20679;-71
2023/03/18 00:03:11;;;;;;;10.70;6.73;;;10.50;1.00;;;;;;5045220;28;20436;-70
2023/03/18 00:05:37;;;;;;;10.03;6.30;;;10.50;1.00;;;;;;5048927;28;20339;-69
2023/03/18 00:08:04;;;;;;;9.80;6.87;;;10.50;1.00;;;;;;5048505;28;20243;-70
2023/03/18 00:10:32;;;;;;;10.60;6.80;;;10.50;1.00;;;;;;5047271;28;20181;-70
2023/03/18 00:12:58;;;;;;;14.23;6.40;;;10.50;1.00;;;;;;5043575;28;20511;-70
2023/03/18 00:15:24;;;;;;;10.80;6.00;;;10.40;1.00;;;;;;5038584;28;20918;-70
2023/03/18 00:17:50;;;;;;;11.47;6.00;;;10.40;1.00;;;;;;5044280;28;20505;-70
2023/03/18 00:20:17;;;;;;;10.60;6.20;;;10.80;1.00;;;;;;5048485;28;20779;-70
2023/03/18 00:22:44;;;;;;;13.23;6.20;;;10.40;1.00;;;;;;5039322;28;20174;-72
2023/03/18 00:25:11;;;;;;;10.83;6.60;;;10.40;1.00;;;;;;5047109;28;20495;-69
2023/03/18 00:27:37;;;;;;;10.40;6.13;;;10.40;1.00;;;;;;5040324;28;20460;-70
2023/03/18 00:30:04;;;;;;;10.47;6.03;;;10.40;1.00;;;;;;5044933;28;20474;-71
2023/03/18 00:32:30;;;;;;;9.43;5.77;;;10.40;1.00;;;;;;5046986;28;20447;-70
2023/03/18 00:34:56;;;;;;;8.13;5.63;;;10.40;1.00;;;;;;5048441;28;20420;-70
2023/03/18 00:37:29;;;;;;;9.83;6.10;;;10.40;1.00;;;;;;5043672;28;20505;-71
2023/03/18 00:40:19;;;;;;;10.13;6.50;;;10.40;1.00;;;;;;5048142;28;20191;-67
2023/03/18 00:42:56;;;;;;;8.40;6.00;;;10.40;1.00;;;;;;5037864;28;21214;-70
2023/03/18 00:45:23;;;;;;;11.70;6.77;;;10.40;1.00;;;;;;5044419;28;20469;-71
2023/03/18 00:47:49;;;;;;;11.93;6.20;;;10.40;1.00;;;;;;5046309;28;20478;-70
2023/03/18 00:50:15;;;;;;;9.73;6.03;;;10.40;1.00;;;;;;5040690;28;21861;-70
2023/03/18 00:52:40;;;;;;;14.70;6.73;;;10.40;1.00;;;;;;5048025;28;20480;-70
2023/03/18 00:55:07;;;;;;;8.63;5.60;;;10.40;1.00;;;;;;5048241;28;20467;-72
2023/03/18 00:57:33;;;;;;;15.90;6.23;;;10.40;1.00;;;;;;5048291;28;20754;-70
2023/03/18 00:59:58;;;;;;;9.30;6.70;;;10.40;1.00;;;;;;5041027;28;20531;-70
2023/03/18 01:02:25;;;;;;;10.63;6.13;;;10.40;1.00;;;;;;5041496;28;20675;-70
2023/03/18 01:04:51;;;;;;;12.10;6.70;;;10.40;1.00;;;;;;5041710;28;20706;-71
2023/03/18 01:07:16;;;;;;;9.80;6.30;;;10.40;1.00;;;;;;5037392;28;20456;-71
2023/03/18 01:09:42;;;;;;;12.30;6.40;;;10.40;1.00;;;;;;5039430;28;20185;-71
2023/03/18 01:12:10;;;;;;;9.33;6.17;;;10.40;1.00;;;;;;5040418;28;20189;-71
2023/03/18 01:14:37;;;;;;;9.50;6.87;;;10.40;1.00;;;;;;5041164;28;20427;-71
2023/03/18 01:17:04;;;;;;;9.67;6.13;;;10.30;1.00;;;;;;5038407;28;20472;-70
2023/03/18 01:19:30;;;;;;;10.13;6.60;;;10.40;1.00;;;;;;5033661;28;20432;-71
2023/03/18 01:21:56;;;;;;;7.83;5.83;;;10.40;1.00;;;;;;5038200;28;20424;-70
2023/03/18 01:24:22;;;;;;;10.30;6.83;;;10.10;1.00;;;;;;5039365;28;20760;-71
2023/03/18 01:26:47;;;;;;;9.93;6.53;;;10.40;1.00;;;;;;5033195;28;20223;-69
2023/03/18 01:29:13;;;;;;;8.93;6.40;;;10.40;1.00;;;;;;5042267;28;20189;-70
2023/03/18 01:31:39;;;;;;;9.97;6.40;;;10.40;1.00;;;;;;5034748;28;20181;-69
2023/03/18 01:34:05;;;;;;;10.10;6.20;;;10.40;1.00;;;;;;5046042;28;20446;-70
2023/03/18 01:36:30;;;;;;;10.40;6.50;;;10.50;1.00;;;;;;5035911;28;20214;-70
2023/03/18 01:38:59;;;;;;;10.03;6.20;;;10.50;1.00;;;;;;5033932;28;20548;-72
2023/03/18 01:41:25;;;;;;;13.70;6.23;;;10.50;1.00;;;;;;5040037;28;20265;-70
2023/03/18 01:43:53;;;;;;;9.90;7.00;;;10.50;1.00;;;;;;5042588;28;20471;-70
2023/03/18 01:46:31;;;;;;;10.20;6.13;;;10.60;1.00;;;;;;5038400;28;20517;-70
2023/03/18 01:48:56;;;;;;;8.93;6.20;;;10.60;1.00;;;;;;5036326;28;20447;-70
2023/03/18 01:51:25;;;;;;;11.07;6.50;;;10.60;1.00;;;;;;5048224;28;20498;-70
2023/03/18 01:53:53;;;;;;;11.23;5.90;;;10.50;1.00;;;;;;5037792;28;20189;-72
2023/03/18 01:56:19;;;;;;;7.33;5.60;;;10.50;1.00;;;;;;5031402;28;20551;-70
2023/03/18 01:58:48;;;;;;;9.93;6.40;;;10.50;1.00;;;;;;5041785;28;20439;-71
2023/03/18 02:01:24;;;;;;;10.13;6.93;;;10.40;1.00;;;;;;5041196;28;20479;-70
2023/03/18 02:03:51;;;;;;;9.53;5.90;;;10.30;1.00;;;;;;5034762;28;20509;-70
2023/03/18 02:06:17;;;;;;;10.30;6.10;;;10.20;1.00;;;;;;5034728;28;20472;-70
2023/03/18 02:08:43;;;;;;;9.53;5.80;;;10.20;1.00;;;;;;5038759;28;20439;-71
2023/03/18 02:11:10;;;;;;;9.00;6.27;;;10.10;1.00;;;;;;5047500;28;20436;-70
2023/03/18 02:13:40;;;;;;;9.53;6.37;;;10.00;1.00;;;;;;5033388;28;20207;-71
2023/03/18 02:16:20;;;;;;;11.07;6.47;;;10.00;1.00;;;;;;5046750;28;20439;-70
2023/03/18 02:18:55;;;;;;;15.30;6.67;;;9.90;1.00;;;;;;5045008;28;20505;-70
2023/03/18 02:21:26;;;;;;;8.90;6.43;;;9.90;1.00;;;;;;5029039;28;20440;-70
2023/03/18 02:24:13;;;;;;;10.13;6.03;;;9.90;1.00;;;;;;5042099;28;20445;-70
2023/03/18 02:26:53;;;;;;;7.53;5.87;;;9.90;1.00;;;;;;5047036;28;21053;-70
2023/03/18 02:29:20;;;;;;;10.23;6.13;;;9.90;1.00;;;;;;5036442;28;20435;-70
2023/03/18 02:31:47;;;;;;;9.00;5.20;;;9.90;1.00;;;;;;5045878;28;21075;-70
2023/03/18 02:34:14;;;;;;;11.53;5.67;;;9.90;1.00;;;;;;5044110;28;20436;-71
2023/03/18 02:36:40;;;;;;;8.37;5.27;;;10.00;1.00;;;;;;5047837;28;20455;-70
2023/03/18 02:39:06;;;;;;;10.87;5.60;;;9.90;1.00;;;;;;5034945;28;20462;-71
2023/03/18 02:41:34;;;;;;;9.70;5.47;;;9.90;1.00;;;;;;5038153;28;20663;-70
2023/03/18 02:44:00;;;;;;;8.77;5.17;;;9.90;1.00;;;;;;5031964;28;20439;-70
2023/03/18 02:46:35;;;;;;;9.30;5.77;;;9.90;1.00;;;;;;5036334;28;20463;-70
2023/03/18 02:49:02;;;;;;;9.90;5.90;;;9.90;1.00;;;;;;5038784;28;20514;-70
2023/03/18 02:51:28;;;;;;;7.13;5.10;;;9.90;1.00;;;;;;5048007;28;20431;-72
2023/03/18 02:53:59;;;;;;;7.87;5.80;;;10.00;1.00;;;;;;5038231;28;20435;-70
2023/03/18 02:56:25;;;;;;;11.13;5.87;;;10.10;1.00;;;;;;5048303;28;20440;-70
2023/03/18 02:58:51;;;;;;;10.03;5.23;;;10.10;1.00;;;;;;5042630;28;20443;-70
2023/03/18 03:01:17;;;;;;;6.90;4.70;;;10.10;1.00;;;;;;5034611;28;20186;-70
2023/03/18 03:03:42;;;;;;;8.53;5.00;;;10.10;1.00;;;;;;5044770;28;20197;-71
2023/03/18 03:06:09;;;;;;;7.67;4.83;;;10.20;1.00;;;;;;5037628;28;20237;-71
2023/03/18 03:08:36;;;;;;;12.40;5.47;;;10.30;1.00;;;;;;5049942;28;20186;-70
2023/03/18 03:11:01;;;;;;;9.17;5.10;;;10.40;1.00;;;;;;5050064;28;20435;-70
2023/03/18 03:13:28;;;;;;;7.20;4.23;;;10.50;1.00;;;;;;5047753;28;20503;-70
2023/03/18 03:15:54;;;;;;;11.17;4.77;;;10.70;1.00;;;;;;5040375;28;20662;-66
2023/03/18 03:18:20;;;;;;;6.57;4.97;;;10.70;1.00;;;;;;5042599;28;20470;-71
2023/03/18 03:20:46;;;;;;;7.10;4.60;;;10.90;1.00;;;;;;5049250;28;20435;-70
2023/03/18 03:23:14;;;;;;;6.80;4.50;;;11.00;1.00;;;;;;5042699;28;20508;-70
2023/03/18 03:25:40;;;;;;;7.90;4.67;;;11.10;1.00;;;;;;5048712;28;20208;-70
2023/03/18 03:28:07;;;;;;;9.13;4.77;;;11.20;1.00;;;;;;5049171;28;20455;-70
2023/03/18 03:30:34;;;;;;;9.10;5.10;;;11.30;1.00;;;;;;5036036;28;20442;-69
2023/03/18 03:33:00;;;;;;;9.47;4.40;;;11.30;1.00;;;;;;5047343;28;20424;-70
2023/03/18 03:35:26;;;;;;;11.60;5.30;;;11.40;1.00;;;;;;5039200;28;20444;-70
2023/03/18 03:37:52;;;;;;;6.97;4.50;;;11.40;1.00;;;;;;5039242;28;20300;-70
2023/03/18 03:40:19;;;;;;;6.37;3.70;;;11.40;1.00;;;;;;5042173;28;20443;-70
2023/03/18 03:42:46;;;;;;;7.83;4.30;;;11.40;1.00;;;;;;5042922;28;20981;-70
2023/03/18 03:45:13;;;;;;;6.17;4.10;;;11.40;1.00;;;;;;5037030;28;20502;-70
2023/03/18 03:47:41;;;;;;;6.50;4.70;;;11.50;1.00;;;;;;5051064;28;20500;-69
2023/03/18 03:50:09;;;;;;;7.07;4.50;;;11.40;1.00;;;;;;5033691;28;20432;-70
2023/03/18 03:52:35;;;;;;;12.73;4.43;;;11.90;1.00;;;;;;5033937;28;20493;-70
2023/03/18 03:55:02;;;;;;;10.53;4.53;;;11.50;1.00;;;;;;5037373;28;20451;-70
2023/03/18 03:57:28;;;;;;;9.23;4.33;;;11.50;1.00;;;;;;5045116;28;20863;-70
2023/03/18 03:59:55;;;;;;;12.70;4.70;;;11.50;1.00;;;;;;5048612;28;20439;-70
2023/03/18 04:02:22;;;;;;;6.90;4.70;;;11.50;1.00;;;;;;5050676;28;20185;-70
2023/03/18 04:04:49;;;;;;;8.77;4.20;;;11.50;1.00;;;;;;5044904;28;21300;-66
2023/03/18 04:07:15;;;;;;;5.63;4.33;;;11.50;1.00;;;;;;5044570;28;20463;-70
2023/03/18 04:09:41;;;;;;;6.40;4.27;;;11.50;1.00;;;;;;5042698;28;20440;-70
2023/03/18 04:12:07;;;;;;;6.03;4.23;;;11.60;1.00;;;;;;5046505;28;20807;-66
2023/03/18 04:14:33;;;;;;;6.70;4.20;;;11.60;1.00;;;;;;5040300;28;20443;-70
2023/03/18 04:16:59;;;;;;;8.20;6.33;;;11.70;1.00;;;;;;5048405;28;20502;-70
2023/03/18 04:19:26;;;;;;;11.57;6.53;;;11.70;1.00;;;;;;5045970;28;20189;-71
2023/03/18 04:21:52;;;;;;;13.43;6.27;;;11.70;1.00;;;;;;5038623;28;20448;-70
2023/03/18 04:24:19;;;;;;;9.50;6.13;;;11.70;1.00;;;;;;5044067;28;20444;-69
2023/03/18 04:26:45;;;;;;;8.77;5.10;;;12.00;1.00;;;;;;5049332;28;20944;-70
2023/03/18 04:29:10;;;;;;;12.03;6.07;;;11.70;1.00;;;;;;5038250;28;20528;-70
2023/03/18 04:31:36;;;;;;;9.33;4.93;;;11.70;1.00;;;;;;5038439;28;20542;-70
2023/03/18 04:34:01;;;;;;;9.87;6.43;;;11.70;1.00;;;;;;5037421;28;20180;-70
2023/03/18 04:36:27;;;;;;;10.03;5.93;;;11.70;1.00;;;;;;5047028;28;20220;-70
2023/03/18 04:38:53;;;;;;;10.20;6.40;;;11.80;1.00;;;;;;5033394;28;20248;-70
2023/03/18 04:41:18;;;;;;;9.53;6.07;;;11.80;1.00;;;;;;5046253;28;20200;-70
2023/03/18 04:43:44;;;;;;;7.17;5.70;;;11.70;1.00;;;;;;5037999;28;20292;-70
2023/03/18 04:46:10;;;;;;;7.70;5.43;;;12.10;1.00;;;;;;5044216;28;20205;-68
2023/03/18 04:48:38;;;;;;;9.03;6.07;;;11.70;1.00;;;;;;5040972;28;20193;-70
2023/03/18 04:51:04;;;;;;;9.10;5.00;;;11.60;1.00;;;;;;5042407;28;20639;-69
2023/03/18 04:53:30;;;;;;;7.00;5.00;;;11.60;1.00;;;;;;5040078;28;20439;-71
2023/03/18 04:55:55;;;;;;;6.80;4.60;;;11.60;1.00;;;;;;5049756;28;20424;-70
2023/03/18 04:58:21;;;;;;;5.87;4.17;;;11.50;1.00;;;;;;5046783;28;20220;-70
2023/03/18 05:00:46;;;;;;;5.50;3.90;;;11.40;1.00;;;;;;5042261;28;20266;-69
2023/03/18 05:03:12;;;;;;;20.97;4.47;;;11.40;1.00;;;;;;5040868;28;20189;-72
2023/03/18 05:05:37;;;;;;;5.93;4.57;;;11.50;1.00;;;;;;5037608;28;20236;-70
2023/03/18 05:08:03;;;;;;;10.60;4.43;;;11.50;1.00;;;;;;5045474;28;20351;-71
2023/03/18 05:10:29;;;;;;;5.47;4.30;;;11.50;1.00;;;;;;5044551;28;21014;-71
2023/03/18 05:12:54;;;;;;;5.33;4.30;;;11.60;1.00;;;;;;5053675;28;20192;-70
2023/03/18 05:15:20;;;;;;;4.83;3.53;;;11.60;1.00;;;;;;5048584;28;20628;-70
2023/03/18 05:17:46;;;;;;;7.63;3.23;;;11.70;1.00;;;;;;5035804;28;20236;-70
2023/03/18 05:20:12;;;;;;;6.57;3.97;;;11.70;1.00;;;;;;5033017;28;20742;-70
2023/03/18 05:22:38;;;;;;;6.40;3.20;;;11.80;1.00;;;;;;5043307;28;20459;-70
2023/03/18 05:25:05;;;;;;;6.20;3.57;;;11.80;1.00;;;;;;5045194;28;20435;-70
2023/03/18 05:27:31;;;;;;;8.40;3.30;;;11.80;1.00;;;;;;5046956;28;21205;-71
2023/03/18 05:29:57;;;;;;;8.80;3.53;;;11.80;1.00;;;;;;5043102;28;20447;-70
2023/03/18 05:32:23;;;;;;;6.93;3.53;;;11.80;1.00;;;;;;5034864;28;20177;-70
2023/03/18 05:34:49;;;;;;;6.17;3.60;;;11.80;1.00;;;;;;5045216;28;20181;-68
2023/03/18 05:37:15;;;;;;;8.57;3.70;;;11.80;1.00;;;;;;5032039;28;20467;-70
2023/03/18 05:39:41;;;;;;;5.67;3.53;;;11.60;1.00;;;;;;5044197;28;20596;-71
2023/03/18 05:42:07;;;;;;;6.60;4.17;;;11.40;1.00;;;;;;5048777;28;20181;-70
2023/03/18 05:44:33;;;;;;;7.70;4.17;;;11.30;1.00;;;;;;5033128;28;20419;-70
2023/03/18 05:46:59;;;;;;;5.80;4.27;;;11.20;1.00;;;;;;5045177;28;20475;-70
2023/03/18 05:49:26;;;;;;;9.90;3.70;;;11.10;1.00;;;;;;5035594;28;20846;-70
2023/03/18 05:51:51;;;;;;;5.33;3.70;;;11.10;1.00;;;;;;5045013;28;20232;-70
2023/03/18 05:54:17;;;;;;;5.23;3.80;;;11.10;1.00;;;;;;5035586;28;20427;-70
2023/03/18 05:56:46;;;;;;;8.90;4.17;;;11.10;1.00;;;;;;5044938;28;20223;-70
2023/03/18 05:59:13;;;;;;;7.67;3.47;;;11.00;1.00;;;;;;5045018;28;20212;-67
2023/03/18 06:01:40;;;;;;;7.73;3.30;;;11.00;1.00;;;;;;5046001;28;20436;-70
2023/03/18 06:04:07;;;;;;;5.17;4.00;;;10.90;1.00;;;;;;5039991;28;20938;-70
2023/03/18 06:06:34;;;;;;;5.87;4.03;;;10.90;1.00;;;;;;5037818;28;20598;-71
2023/03/18 06:09:00;;;;;;;4.80;3.67;;;10.90;1.00;;;;;;5045915;28;20436;-70
2023/03/18 06:11:25;;;;;;;5.97;4.10;;;11.00;1.00;;;;;;5037378;28;20442;-70
2023/03/18 06:13:51;;;;;;;7.63;3.87;;;11.10;1.00;;;;;;5040934;28;20266;-70
2023/03/18 06:16:16;;;;;;;5.13;4.00;;;11.30;1.00;;;;;;5041960;28;20188;-71
2023/03/18 06:18:42;;;;;;;8.87;4.00;;;11.30;1.00;;;;;;5047877;28;20722;-71
2023/03/18 06:21:08;;;;;;;5.07;4.00;;;11.40;1.00;;;;;;5046812;28;20196;-70
2023/03/18 06:23:35;;;;;;;9.80;5.90;;;11.50;1.00;;;;;;5040472;28;20622;-71
2023/03/18 06:26:01;;;;;;;19.40;11.30;;;11.60;1.00;;;;;;5044165;28;20490;-70
2023/03/18 06:28:26;;;;;;;22.30;13.53;;;11.70;1.00;;;;;;5039195;28;20519;-67
2023/03/18 06:30:57;;;;;;;23.43;12.80;;;11.70;1.00;;;;;;5047209;28;20525;-70
2023/03/18 06:33:24;;;;;;;18.40;12.03;;;11.80;1.00;;;;;;5041861;28;20661;-71
2023/03/18 06:35:51;;;;;;;18.40;11.60;;;11.90;1.00;;;;;;5051187;28;20446;-71
2023/03/18 06:38:16;;;;;;;17.50;9.80;;;12.00;1.00;;;;;;5047701;28;20459;-72
2023/03/18 06:40:43;;;;;;;11.57;7.50;;;12.10;1.00;;;;;;5048145;28;20561;-71
2023/03/18 06:43:09;;;;;;;12.30;6.13;;;12.10;1.00;;;;;;5042652;28;20752;-72
2023/03/18 06:45:36;;;;;;;7.50;5.20;;;12.10;1.00;;;;;;5030771;28;20479;-71
2023/03/18 06:48:02;;;;;;;4.90;3.87;;;12.10;1.00;;;;;;5039210;28;20459;-71
2023/03/18 06:50:29;;;;;;;6.40;4.07;;;12.20;1.00;;;;;;5050991;28;20674;-71
2023/03/18 06:52:55;;;;;;;6.93;4.47;;;12.20;1.00;;;;;;5048890;28;20959;-71
2023/03/18 06:55:20;;;;;;;9.00;4.70;;;12.20;1.00;;;;;;5049762;28;20435;-71
2023/03/18 06:57:46;;;;;;;4.77;3.40;;;12.30;1.00;;;;;;5052877;28;20618;-71
2023/03/18 07:00:13;;;;;;;5.77;3.73;;;12.30;1.00;;;;;;5044837;28;20185;-71
2023/03/18 07:02:40;;;;;;;6.27;3.93;;;12.20;1.00;;;;;;5065129;28;20280;-71
2023/03/18 07:05:07;;;;;;;6.63;4.23;;;12.30;1.00;;;;;;5049350;28;20428;-71
2023/03/18 07:07:32;;;;;;;10.73;3.93;;;12.40;1.00;;;;;;5046538;28;20561;-71
2023/03/18 07:09:59;;;;;;;7.13;4.07;;;12.50;1.00;;;;;;5046480;28;20427;-70
2023/03/18 07:12:25;;;;;;;6.97;4.40;;;12.70;1.00;;;;;;5048493;28;20181;-71
2023/03/18 07:14:52;;;;;;;6.50;3.90;;;12.70;1.00;;;;;;5045012;28;20811;-71
2023/03/18 07:17:18;;;;;;;7.27;4.10;;;12.70;1.00;;;;;;5046280;28;21019;-70
2023/03/18 07:19:44;;;;;;;9.43;4.10;;;12.80;1.00;;;;;;5048909;28;20557;-70
2023/03/18 07:22:10;;;;;;;7.47;3.50;;;12.80;1.00;;;;;;5040489;28;20514;-70
2023/03/18 07:24:36;;;;;;;4.50;2.93;;;12.80;1.00;;;;;;5043422;28;20188;-72
2023/03/18 07:27:03;;;;;;;4.90;2.83;;;12.80;1.00;;;;;;5046326;28;20460;-70
2023/03/18 07:29:28;;;;;;;3.70;3.00;;;12.90;1.00;;;;;;5036679;28;20454;-70
2023/03/18 07:31:54;;;;;;;5.13;3.80;;;13.00;1.00;;;;;;5049561;28;20432;-70
2023/03/18 07:34:20;;;;;;;7.70;3.37;;;13.10;1.00;;;;;;5044572;28;20182;-70
2023/03/18 07:36:46;;;;;;;5.07;2.90;;;13.10;1.00;;;;;;5040075;28;20626;-71
2023/03/18 07:39:11;;;;;;;3.30;2.57;;;13.30;1.00;;;;;;5040000;28;20272;-70
2023/03/18 07:41:37;;;;;;;6.77;2.80;;;13.40;1.00;;;;;;5037748;28;20526;-70
2023/03/18 07:44:04;;;;;;;4.53;2.83;;;13.40;1.00;;;;;;5032513;28;20182;-70
2023/03/18 07:46:29;;;;;;;4.43;2.30;;;13.50;1.00;;;;;;5038054;28;20275;-70
2023/03/18 07:48:55;;;;;;;4.50;2.40;;;13.60;1.00;;;;;;5045659;28;20930;-71
2023/03/18 07:51:21;;;;;;;3.43;2.73;;;13.70;1.00;;;;;;5047114;28;20633;-70
2023/03/18 07:53:46;;;;;;;3.90;2.50;;;13.80;1.00;;;;;;5044175;28;20185;-72
2023/03/18 07:56:12;;;;;;;5.50;2.40;;;13.80;1.00;;;;;;5035262;28;20261;-70
2023/03/18 07:58:37;;;;;;;4.63;2.67;;;13.90;1.00;;;;;;5038646;28;20190;-70
2023/03/18 08:01:04;;;;;;;4.73;2.60;;;13.90;1.00;;;;;;5043503;28;20244;-70
2023/03/18 08:03:29;;;;;;;4.10;2.60;;;13.90;1.00;;;;;;5042082;28;20277;-71
2023/03/18 08:05:56;;;;;;;6.70;2.70;;;14.00;1.00;;;;;;5044359;28;20579;-70
2023/03/18 08:08:22;;;;;;;4.07;2.73;;;14.10;1.00;;;;;;5034456;28;20352;-70
2023/03/18 08:10:47;;;;;;;5.55;2.60;;;14.20;1.00;;;;;;5045067;28;20537;-71
2023/03/18 08:13:13;;;;;;;3.83;2.40;;;14.40;1.00;;;;;;5042133;28;20189;-71
2023/03/18 08:15:39;;;;;;;5.23;2.83;;;14.40;1.00;;;;;;5032546;28;20196;-68
2023/03/18 08:18:05;;;;;;;3.00;2.40;;;14.50;1.00;;;;;;5036823;28;20209;-71
2023/03/18 08:20:30;;;;;;;5.03;2.93;;;14.50;1.00;;;;;;5035427;28;20436;-71
2023/03/18 08:22:56;;;;;;;4.10;2.60;;;14.60;1.00;;;;;;5052786;28;20213;-70
2023/03/18 08:25:22;;;;;;;4.47;2.80;;;14.70;1.00;;;;;;5054519;28;20288;-70
2023/03/18 08:27:48;;;;;;;3.70;3.00;;;14.80;1.00;;;;;;5041007;28;20247;-71
2023/03/18 08:30:15;;;;;;;6.40;2.80;;;14.90;1.00;;;;;;5044245;28;20420;-72
2023/03/18 08:32:42;;;;;;;4.13;2.63;;;15.00;1.00;;;;;;5047338;28;22270;-71
2023/03/18 08:35:08;;;;;;;6.63;2.77;;;15.10;1.00;;;;;;5030410;28;20935;-71
2023/03/18 08:37:34;;;;;;;5.70;2.47;;;15.50;1.00;;;;;;5050718;28;20443;-71
2023/03/18 08:40:00;;;;;;;5.20;3.17;;;16.90;1.00;;;;;;5041686;28;20578;-71
2023/03/18 08:42:26;;;;;;;5.90;2.93;;;18.90;1.00;;;;;;5040463;28;20416;-71
2023/03/18 08:44:52;;;;;;;4.40;2.67;;;20.70;1.00;;;;;;5030708;28;20439;-71
2023/03/18 08:47:18;;;;;;;4.30;2.90;;;22.10;1.00;;;;;;5031022;28;20205;-72
2023/03/18 08:49:44;;;;;;;7.93;3.50;;;23.20;1.00;;;;;;5045993;28;20192;-72
2023/03/18 08:52:10;;;;;;;5.60;3.30;;;24.40;1.00;;;;;;5032006;28;20432;-72
2023/03/18 08:54:36;;;;;;;6.77;3.10;;;;;;;;;;5046418;28;20184;-72
2023/03/18 08:57:02;;;;;;;7.53;3.00;;;25.70;1.00;;;;;;5045016;28;20455;-73
2023/03/18 08:59:28;;;;;;;6.30;2.97;;;25.40;1.00;;;;;;5041356;28;20843;-72
2023/03/18 09:01:53;;;;;;;3.70;2.60;;;25.50;1.00;;;;;;5037329;28;20217;-73
2023/03/18 09:04:19;;;;;;;5.77;3.03;;;25.70;1.00;;;;;;5038276;28;20249;-73
2023/03/18 09:06:45;;;;;;;5.00;2.90;;;25.60;1.00;;;;;;5048249;28;20284;-73
2023/03/18 09:09:10;;;;;;;4.67;2.70;;;26.00;1.00;;;;;;5046449;28;20604;-73
2023/03/18 09:11:38;;;;;;;7.25;3.10;;;27.10;1.00;;;;;;5047031;28;20181;-72
2023/03/18 09:14:03;;;;;;;5.32;2.83;;;27.70;1.00;;;;;;5030708;28;20187;-72
2023/03/18 09:16:29;;;;;;;5.72;2.85;;;27.60;1.00;;;;;;5034188;28;20208;-73
2023/03/18 09:18:55;;;;;;;6.00;2.80;;;26.70;1.00;;;;;;5049074;28;20655;-72
2023/03/18 09:21:21;;;;;;;4.90;2.85;;;26.80;1.00;;;;;;5047209;28;20184;-72
2023/03/18 09:23:48;;;;;;;6.82;2.70;;;27.40;1.00;;;;;;5032854;28;20181;-72
2023/03/18 09:26:13;;;;;;;4.00;2.50;;;29.00;1.00;;;;;;5036300;28;20587;-72
2023/03/18 09:28:39;;;;;;;5.07;2.70;;;29.00;1.00;;;;;;5036973;28;20184;-72
2023/03/18 09:31:04;;;;;;;5.10;2.78;;;29.30;1.00;;;;;;5036161;28;20320;-72
2023/03/18 09:33:30;;;;;;;5.15;2.97;;;29.00;1.00;;;;;;5042416;28;20655;-72
2023/03/18 09:35:56;;;;;;;10.07;2.75;;;28.70;1.00;;;;;;5029494;28;20569;-72
2023/03/18 09:38:22;;;;;;;7.10;2.97;;;28.60;1.00;;;;;;5044770;28;20196;-72
2023/03/18 09:41:19;;;;;;;4.15;2.65;;;29.20;1.00;;;;;;5031996;28;20541;-73
2023/03/18 09:44:09;;;;;;;5.20;2.60;;;30.10;1.00;;;;;;5027661;28;20810;-72
2023/03/18 09:46:37;;;;;;;5.40;2.80;;;30.10;1.00;;;;;;5036540;28;20203;-72
2023/03/18 09:49:09;;;;;;;7.72;2.67;;;31.00;1.00;;;;;;5039557;28;20180;-72
2023/03/18 09:51:45;;;;;;;3.50;2.35;;;30.70;1.00;;;;;;5044415;28;20219;-73
2023/03/18 09:54:22;;;;;;;4.00;2.50;;;30.30;1.00;;;;;;5041055;28;20180;-72
2023/03/18 09:56:51;;;;;;;4.07;2.55;;;30.50;1.00;;;;;;5052808;28;20587;-72
2023/03/18 09:59:29;;;;;;;5.38;2.60;;;31.00;1.00;;;;;;5043483;28;20263;-69
2023/03/18 10:01:56;;;;;;;4.15;2.30;;;31.70;1.00;;;;;;5034692;28;20666;-73
2023/03/18 10:04:33;;;;;;;7.05;2.40;;;32.50;1.00;;;;;;5048704;28;20184;-72
2023/03/18 10:07:05;;;;;;;7.15;2.55;;;31.90;1.00;;;;;;5036697;28;20199;-73
2023/03/18 10:09:43;;;;;;;5.57;2.13;;;29.70;1.00;;;;;;5044664;28;20199;-72
2023/03/18 10:12:25;;;;;;;3.95;2.47;;;28.30;1.00;;;;;;5048098;28;20184;-72
2023/03/18 10:15:03;;;;;;;4.85;2.50;;;28.10;1.00;;;;;;5036868;28;20231;-73
2023/03/18 10:18:00;;;;;;;5.05;2.28;;;27.40;1.00;;;;;;5035178;28;20232;-71
2023/03/18 10:20:57;;;;;;;5.95;2.67;;;28.20;1.00;;;;;;5044947;28;20190;-72
2023/03/18 10:23:32;;;;;;;8.77;2.50;;;29.80;1.00;;;;;;5033420;28;20189;-72
2023/03/18 10:26:05;;;;;;;5.68;2.50;;;30.30;1.00;;;;;;5039524;28;20241;-72
2023/03/18 10:28:34;;;;;;;4.03;2.33;;;30.60;1.00;;;;;;5043762;28;20181;-71
2023/03/18 10:31:36;;;;;;;4.65;2.22;;;30.70;1.00;;;;;;5029080;28;20204;-73
2023/03/18 10:34:14;;;;;;;5.50;2.53;;;31.30;1.00;;;;;;5022919;28;20219;-72
2023/03/18 10:36:54;;;;;;;4.63;2.30;;;32.30;1.00;;;;;;5029111;28;20635;-72
2023/03/18 10:39:23;;;;;;;4.35;2.20;;;33.10;1.00;;;;;;5030092;28;20667;-72
2023/03/18 10:41:51;;;;;;;5.47;2.20;;;33.20;1.00;;;;;;5035727;28;20193;-73
2023/03/18 10:44:29;;;;;;;4.93;2.50;;;33.40;1.00;;;;;;5037744;28;20182;-73
2023/03/18 10:47:09;;;;;;;4.03;2.33;;;33.60;1.00;;;;;;5039605;28;20679;-73
2023/03/18 10:49:39;;;;;;;6.57;2.20;;;33.30;1.00;;;;;;5032489;28;20181;-72
2023/03/18 10:52:32;;;;;;;5.25;2.30;;;32.40;1.00;;;;;;5037910;28;20186;-72
2023/03/18 10:54:58;;;;;;;5.03;2.50;;;29.30;1.00;;;;;;5033379;28;20242;-72
2023/03/18 10:57:24;;;;;;;3.53;2.20;;;27.50;1.00;;;;;;5044082;28;20195;-72
2023/03/18 10:59:50;;;;;;;3.72;2.65;;;27.20;1.00;;;;;;5046925;28;20176;-72
2023/03/18 11:02:23;;;;;;;9.20;2.33;;;28.10;1.00;;;;;;5044737;28;20184;-72
2023/03/18 11:04:54;;;;;;;5.63;2.60;;;29.60;1.00;;;;;;5045950;28;20189;-72
2023/03/18 11:07:29;;;;;;;5.67;2.50;;;29.00;1.00;;;;;;5034617;28;20238;-72
2023/03/18 11:10:11;;;;;;;5.00;2.60;;;27.40;1.00;;;;;;5042001;28;20230;-72
2023/03/18 11:12:36;;;;;;;6.77;2.47;;;26.30;1.00;;;;;;5044887;28;20180;-73
2023/03/18 11:15:09;;;;;;;6.03;2.97;;;27.50;1.00;;;;;;5045532;28;20185;-72
2023/03/18 11:17:38;;;;;;;6.43;2.75;;;29.60;1.00;;;;;;5034871;28;20258;-72
2023/03/18 11:20:24;;;;;;;8.40;2.70;;;30.30;1.00;;;;;;5048080;28;20195;-72
2023/03/18 11:22:54;;;;;;;4.95;2.47;;;30.40;1.00;;;;;;5049433;28;20208;-72
2023/03/18 11:25:25;;;;;;;7.65;2.63;;;31.30;1.00;;;;;;5048191;28;20211;-72
2023/03/18 11:28:02;;;;;;;5.43;2.60;;;30.90;1.00;;;;;;5035489;28;20551;-72
2023/03/18 11:30:34;;;;;;;4.47;2.53;;;30.90;1.00;;;;;;5039377;28;20180;-72
2023/03/18 11:33:11;;;;;;;4.93;3.25;;;31.30;1.00;;;;;;5038885;28;20235;-71
2023/03/18 11:35:49;;;;;;;5.82;2.45;;;32.10;1.00;;;;;;5045350;28;20742;-73
2023/03/18 11:38:33;;;;;;;5.00;2.50;;;33.30;1.00;;;;;;5060369;28;20197;-73
2023/03/18 11:41:13;;;;;;;3.90;2.15;;;34.90;1.00;;;;;;5046140;28;20246;-72
2023/03/18 11:44:19;;;;;;;5.05;2.47;;;35.90;1.00;;;;;;5032972;28;20189;-74
2023/03/18 11:46:50;;;;;;;4.57;2.38;;;36.20;1.00;;;;;;5036086;28;20235;-72
2023/03/18 11:49:21;;;;;;;8.88;2.10;;;36.40;1.00;;;;;;5044750;28;20180;-72
2023/03/18 11:52:22;;;;;;;3.78;1.85;;;37.30;1.00;;;;;;5036585;28;20175;-73
2023/03/18 11:55:06;;;;;;;4.78;2.15;;;38.20;1.00;;;;;;5036857;28;20343;-73
2023/03/18 11:58:07;;;;;;;4.43;2.30;;;38.30;1.00;;;;;;5041829;28;20196;-74
2023/03/18 12:00:44;;;;;;;4.80;2.50;;;38.40;1.00;;;;;;5032072;28;20676;-70
2023/03/18 12:03:31;;;;;;;4.32;2.15;;;38.50;1.00;;;;;;5044829;28;20191;-72
2023/03/18 12:06:04;;;;;;;4.07;2.13;;;37.80;1.00;;;;;;5050431;28;20196;-72
2023/03/18 12:08:49;;;;;;;5.53;2.35;;;37.30;1.00;;;;;;5048168;28;20606;-73
2023/03/18 12:11:40;;;;;;;4.25;2.13;;;38.20;1.00;;;;;;5044648;28;20173;-73
2023/03/18 12:14:27;;;;;;;4.70;2.20;;;38.30;1.00;;;;;;5049231;28;20189;-73
2023/03/18 12:17:14;;;;;;;3.72;2.17;;;38.60;1.00;;;;;;5048780;28;20208;-73
2023/03/18 12:20:07;;;;;;;3.88;2.03;;;37.70;1.00;;;;;;5042011;28;20275;-73
2023/03/18 12:23:03;;;;;;;4.25;2.00;;;37.20;1.00;;;;;;5048942;28;20690;-73
2023/03/18 12:25:51;;;;;;;9.30;2.80;;;36.80;1.00;;;;;;5046858;28;20250;-72
2023/03/18 12:28:28;;;;;;;6.55;2.25;;;36.70;1.00;;;;;;5056643;28;20189;-73
2023/03/18 12:31:19;;;;;;;7.55;2.47;;;35.20;1.00;;;;;;5039600;28;20705;-72
2023/03/18 12:33:55;;;;;;;5.00;2.10;;;34.00;1.00;;;;;;5048865;28;20181;-72
2023/03/18 12:36:38;;;;;;;5.22;2.20;;;32.30;1.00;;;;;;5048681;28;20298;-72
2023/03/18 12:39:23;;;;;;;5.63;2.53;;;31.90;1.00;;;;;;5042980;28;20267;-72
2023/03/18 12:41:54;;;;;;;7.05;2.65;;;32.20;1.00;;;;;;5045283;28;20218;-74
2023/03/18 12:44:51;;;;;;;5.20;2.35;;;32.80;1.00;;;;;;5048927;28;20176;-72
2023/03/18 12:47:22;;;;;;;5.07;2.40;;;32.40;1.00;;;;;;5044173;28;20232;-72
2023/03/18 12:49:55;;;;;;;4.97;2.40;;;31.00;1.00;;;;;;5041381;28;20223;-72
2023/03/18 12:52:23;;;;;;;4.18;2.10;;;30.20;1.00;;;;;;5044109;28;20551;-72
2023/03/18 12:55:01;;;;;;;4.65;2.40;;;29.50;1.00;;;;;;5039713;28;20204;-72
2023/03/18 12:57:36;;;;;;;5.82;2.30;;;29.40;1.00;;;;;;5040664;28;20262;-71
2023/03/18 13:00:13;;;;;;;5.57;2.40;;;30.10;1.00;;;;;;5048422;28;20218;-72
2023/03/18 13:02:49;;;;;;;6.05;2.20;;;31.20;1.00;;;;;;5048269;28;20208;-72
2023/03/18 13:05:35;;;;;;;4.55;2.17;;;32.40;1.00;;;;;;5046036;28;20184;-72
2023/03/18 13:08:20;;;;;;;6.95;2.45;;;33.30;1.00;;;;;;5041112;28;20797;-71